createdAt,value
2019-06-01T00:01:38.137Z,12.50
2019-06-01T00:04:07.676Z,12.50
2019-06-01T00:06:37.024Z,12.40
2019-06-01T00:09:08.148Z,12.40
2019-06-01T00:11:37.574Z,12.40
2019-06-01T00:14:06.943Z,12.30
2019-06-01T00:16:36.284Z,12.30
2019-06-01T00:19:06.037Z,12.40
2019-06-01T00:21:35.467Z,12.50
2019-06-01T00:24:04.986Z,12.60
2019-06-01T00:26:34.329Z,12.50
2019-06-01T00:29:03.713Z,12.60
2019-06-01T00:31:33.152Z,12.70
2019-06-01T00:34:02.543Z,12.80
2019-06-01T00:36:31.893Z,12.80
2019-06-01T00:39:01.338Z,12.80
2019-06-01T00:41:30.700Z,12.80
2019-06-01T00:44:00.102Z,12.70
2019-06-01T00:46:29.459Z,12.70
2019-06-01T00:48:58.837Z,12.80
2019-06-01T00:51:28.178Z,12.80
2019-06-01T00:53:58.123Z,12.80
2019-06-01T00:56:27.611Z,12.80
2019-06-01T00:58:56.990Z,12.80
2019-06-01T01:01:26.425Z,12.80
2019-06-01T01:03:55.840Z,12.80
2019-06-01T01:06:25.219Z,12.90
2019-06-01T01:08:55.170Z,12.90
2019-06-01T01:11:24.717Z,13.00
2019-06-01T01:13:55.338Z,13.00
2019-06-01T01:16:24.862Z,13.00
2019-06-01T01:18:54.317Z,13.00
2019-06-01T01:21:23.658Z,12.90
2019-06-01T01:23:53.505Z,12.80
2019-06-01T01:26:24.135Z,12.80
2019-06-01T01:28:53.554Z,12.90
2019-06-01T01:31:22.951Z,12.80
2019-06-01T01:33:53.347Z,12.80
2019-06-01T01:36:22.830Z,12.90
2019-06-01T01:38:52.425Z,12.90
2019-06-01T01:41:21.899Z,13.00
2019-06-01T01:43:52.767Z,13.00
2019-06-01T01:46:22.353Z,12.90
2019-06-01T01:48:51.984Z,12.90
2019-06-01T01:51:21.515Z,12.90
2019-06-01T01:53:50.838Z,12.80
2019-06-01T01:56:20.274Z,12.80
2019-06-01T01:58:50.290Z,12.70
2019-06-01T02:01:22.618Z,12.60
2019-06-01T02:03:51.577Z,12.50
2019-06-01T02:06:21.649Z,12.50
2019-06-01T02:08:51.085Z,12.50
2019-06-01T02:11:20.461Z,12.40
2019-06-01T02:13:49.794Z,12.30
2019-06-01T02:16:19.254Z,12.30
2019-06-01T02:18:48.612Z,12.20
2019-06-01T02:21:17.990Z,12.20
2019-06-01T02:23:47.408Z,12.20
2019-06-01T02:26:16.754Z,12.10
2019-06-01T02:28:46.091Z,12.10
2019-06-01T02:31:15.469Z,12.10
2019-06-01T02:33:50.237Z,12.10
2019-06-01T02:36:19.615Z,12.00
2019-06-01T02:38:48.963Z,12.10
2019-06-01T02:41:18.421Z,12.10
2019-06-01T02:43:47.828Z,12.00
2019-06-01T02:46:17.371Z,12.00
2019-06-01T02:48:46.727Z,12.00
2019-06-01T02:51:16.253Z,12.00
2019-06-01T02:53:45.674Z,12.00
2019-06-01T02:56:15.063Z,12.00
2019-06-01T02:58:44.410Z,12.00
2019-06-01T03:01:32.784Z,11.90
2019-06-01T03:04:05.341Z,11.90
2019-06-01T03:06:37.418Z,11.90
2019-06-01T03:09:09.226Z,11.90
2019-06-01T03:11:41.024Z,12.00
2019-06-01T03:14:11.981Z,12.00
2019-06-01T03:16:44.165Z,12.00
2019-06-01T03:19:15.259Z,12.00
2019-06-01T03:21:49.147Z,11.90
2019-06-01T03:24:25.261Z,12.00
2019-06-01T03:26:55.899Z,11.90
2019-06-01T03:29:30.091Z,11.80
2019-06-01T03:32:19.330Z,11.80
2019-06-01T03:34:30.698Z,11.80
2019-06-01T03:37:01.420Z,11.80
2019-06-01T03:39:32.009Z,11.80
2019-06-01T03:42:01.560Z,11.80
2019-06-01T03:44:30.981Z,11.80
2019-06-01T03:47:04.150Z,11.80
2019-06-01T03:49:33.575Z,11.80
2019-06-01T03:52:02.955Z,11.80
2019-06-01T03:54:32.305Z,11.90
2019-06-01T03:57:03.544Z,11.90
2019-06-01T03:59:32.783Z,11.90
2019-06-01T04:02:02.981Z,12.00
2019-06-01T04:04:32.401Z,12.00
2019-06-01T04:07:01.777Z,12.10
2019-06-01T04:09:31.208Z,12.20
2019-06-01T04:12:01.463Z,12.30
2019-06-01T04:14:30.811Z,12.30
2019-06-01T04:17:00.202Z,12.50
2019-06-01T04:19:29.580Z,12.90
2019-06-01T04:21:59.093Z,13.40
2019-06-01T04:24:28.454Z,13.60
2019-06-01T04:26:57.886Z,13.70
2019-06-01T04:29:27.235Z,13.70
2019-06-01T04:31:56.613Z,13.70
2019-06-01T04:34:26.027Z,13.70
2019-06-01T04:36:55.404Z,13.90
2019-06-01T04:39:24.762Z,14.40
2019-06-01T04:41:54.139Z,15.00
2019-06-01T04:44:23.485Z,16.30
2019-06-01T04:46:52.937Z,17.20
2019-06-01T04:49:22.365Z,17.20
2019-06-01T04:51:51.771Z,16.90
2019-06-01T04:54:21.194Z,16.50
2019-06-01T04:56:50.578Z,16.10
2019-06-01T04:59:19.935Z,15.80
2019-06-01T05:01:49.301Z,15.80
2019-06-01T05:04:18.687Z,16.60
2019-06-01T05:06:48.046Z,17.20
2019-06-01T05:09:17.439Z,17.20
2019-06-01T05:11:49.057Z,17.60
2019-06-01T05:14:18.834Z,18.20
2019-06-01T05:16:49.799Z,19.30
2019-06-01T05:19:19.413Z,20.20
2019-06-01T05:21:48.824Z,19.70
2019-06-01T05:24:18.294Z,18.70
2019-06-01T05:26:47.709Z,18.00
2019-06-01T05:29:18.066Z,17.70
2019-06-01T05:31:47.959Z,17.40
2019-06-01T05:34:18.410Z,17.20
2019-06-01T05:36:48.092Z,17.00
2019-06-01T05:39:18.678Z,16.80
2019-06-01T05:41:48.269Z,16.90
2019-06-01T05:44:23.331Z,17.00
2019-06-01T05:46:54.523Z,17.00
2019-06-01T05:49:27.161Z,17.10
2019-06-01T05:51:58.355Z,17.20
2019-06-01T05:54:27.904Z,17.30
2019-06-01T05:56:58.844Z,17.30
2019-06-01T05:59:28.507Z,17.40
2019-06-01T06:01:58.065Z,17.50
2019-06-01T06:04:45.206Z,17.70
2019-06-01T06:07:15.405Z,17.80
2019-06-01T06:09:45.167Z,18.00
2019-06-01T06:12:28.299Z,18.10
2019-06-01T06:15:36.639Z,18.20
2019-06-01T06:18:15.753Z,18.30
2019-06-01T06:20:48.933Z,18.40
2019-06-01T06:26:32.747Z,18.70
2019-06-01T06:29:02.399Z,18.80
2019-06-01T06:31:48.235Z,18.90
2019-06-01T06:34:33.921Z,19.10
2019-06-01T06:40:24.380Z,19.30
2019-06-01T06:42:54.559Z,19.30
2019-06-01T06:45:24.972Z,19.40
2019-06-01T06:48:07.450Z,19.40
2019-06-01T06:50:41.540Z,19.60
2019-06-01T06:53:30.398Z,19.80
2019-06-01T06:55:50.991Z,19.80
2019-06-01T06:58:22.596Z,19.80
2019-06-01T07:00:54.029Z,19.90
2019-06-01T07:03:23.757Z,20.00
2019-06-01T07:05:53.241Z,20.10
2019-06-01T07:08:30.568Z,20.20
2019-06-01T07:11:01.711Z,20.20
2019-06-01T07:13:37.662Z,20.30
2019-06-01T07:16:13.601Z,20.50
2019-06-01T07:18:49.992Z,20.80
2019-06-01T07:21:23.648Z,20.90
2019-06-01T07:23:53.569Z,20.70
2019-06-01T07:26:24.026Z,20.70
2019-06-01T07:29:08.576Z,21.00
2019-06-01T07:31:37.993Z,21.20
2019-06-01T07:34:07.575Z,21.30
2019-06-01T07:36:57.114Z,21.40
2019-06-01T07:39:39.897Z,21.60
2019-06-01T07:42:23.020Z,21.80
2019-06-01T07:44:50.304Z,22.00
2019-06-01T07:47:23.087Z,22.10
2019-06-01T07:49:54.180Z,22.30
2019-06-01T07:52:24.226Z,22.30
2019-06-01T07:55:06.551Z,22.50
2019-06-01T07:57:34.800Z,22.60
2019-06-01T08:00:08.048Z,22.80
2019-06-01T08:02:45.076Z,22.80
2019-06-01T08:05:14.859Z,22.70
2019-06-01T08:07:48.932Z,22.80
2019-06-01T08:10:29.938Z,23.30
2019-06-01T08:12:59.288Z,23.50
2019-06-01T08:15:41.366Z,23.50
2019-06-01T08:18:19.631Z,23.30
2019-06-01T08:20:50.352Z,23.60
2019-06-01T08:23:19.821Z,23.80
2019-06-01T08:25:51.059Z,23.80
2019-06-01T08:28:44.380Z,23.90
2019-06-01T08:31:18.895Z,24.20
2019-06-01T08:34:06.451Z,24.40
2019-06-01T08:36:36.166Z,24.50
2019-06-01T08:39:07.791Z,24.40
2019-06-01T08:41:52.547Z,24.50
2019-06-01T08:44:31.732Z,24.50
2019-06-01T08:47:01.236Z,24.70
2019-06-01T08:49:34.468Z,24.50
2019-06-01T08:52:04.620Z,24.90
2019-06-01T08:54:34.484Z,25.20
2019-06-01T08:57:32.443Z,25.90
2019-06-01T08:59:59.064Z,26.50
2019-06-01T09:02:32.768Z,26.80
2019-06-01T09:05:02.162Z,27.30
2019-06-01T09:07:33.094Z,27.40
2019-06-01T09:10:20.887Z,26.60
2019-06-01T09:12:49.576Z,26.40
2019-06-01T09:15:19.522Z,27.10
2019-06-01T09:17:48.920Z,27.10
2019-06-01T09:20:18.421Z,27.00
2019-06-01T09:22:48.298Z,26.90
2019-06-01T09:25:17.956Z,26.50
2019-06-01T09:27:47.468Z,26.70
2019-06-01T09:30:17.433Z,26.70
2019-06-01T09:32:49.925Z,26.70
2019-06-01T09:35:21.948Z,26.60
2019-06-01T09:37:51.056Z,26.30
2019-06-01T09:40:27.347Z,26.70
2019-06-01T09:42:57.392Z,26.90
2019-06-01T09:45:27.835Z,26.90
2019-06-01T09:48:16.591Z,26.70
2019-06-01T09:50:47.779Z,26.80
2019-06-01T09:53:20.089Z,26.80
2019-06-01T09:56:15.514Z,26.70
2019-06-01T09:58:44.876Z,26.80
2019-06-01T10:01:14.320Z,26.60
2019-06-01T10:03:56.415Z,26.60
2019-06-01T10:06:45.525Z,26.60
2019-06-01T10:09:21.105Z,26.70
2019-06-01T10:11:53.294Z,26.90
2019-06-01T10:14:27.356Z,27.30
2019-06-01T10:17:12.639Z,27.20
2019-06-01T10:19:44.007Z,27.10
2019-06-01T10:22:14.993Z,27.10
2019-06-01T10:24:44.490Z,27.40
2019-06-01T10:27:20.782Z,27.60
2019-06-01T10:29:54.590Z,27.70
2019-06-01T10:32:24.104Z,28.00
2019-06-01T10:34:53.521Z,27.90
2019-06-01T10:37:22.913Z,28.10
2019-06-01T10:39:52.267Z,27.60
2019-06-01T10:42:32.284Z,27.50
2019-06-01T10:44:59.934Z,27.80
2019-06-01T10:47:29.336Z,27.30
2019-06-01T10:49:58.848Z,27.50
2019-06-01T10:52:28.207Z,28.10
2019-06-01T10:54:57.901Z,28.60
2019-06-01T10:57:27.365Z,28.90
2019-06-01T10:59:56.732Z,29.40
2019-06-01T11:02:26.450Z,29.30
2019-06-01T11:04:57.534Z,29.20
2019-06-01T11:07:29.996Z,28.60
2019-06-01T11:10:00.539Z,28.30
2019-06-01T11:12:36.925Z,28.50
2019-06-01T11:15:10.431Z,29.10
2019-06-01T11:17:41.696Z,29.00
2019-06-01T11:20:11.504Z,29.00
2019-06-01T11:22:44.197Z,28.80
2019-06-01T11:25:16.970Z,28.80
2019-06-01T11:27:46.460Z,28.40
2019-06-01T11:30:16.961Z,27.80
2019-06-01T11:32:46.310Z,27.80
2019-06-01T11:35:16.000Z,27.70
2019-06-01T11:37:45.493Z,28.20
2019-06-01T11:40:15.193Z,28.10
2019-06-01T11:42:45.082Z,28.30
2019-06-01T11:45:15.464Z,28.60
2019-06-01T11:47:45.206Z,28.60
2019-06-01T11:50:15.323Z,28.90
2019-06-01T11:52:45.471Z,28.40
2019-06-01T11:55:15.089Z,29.00
2019-06-01T11:57:47.422Z,28.70
2019-06-01T12:00:18.026Z,27.60
2019-06-01T12:02:49.261Z,27.60
2019-06-01T12:05:19.098Z,27.70
2019-06-01T12:07:48.476Z,28.80
2019-06-01T12:10:17.988Z,29.50
2019-06-01T12:12:47.427Z,30.20
2019-06-01T12:15:18.393Z,30.40
2019-06-01T12:17:47.777Z,30.60
2019-06-01T12:20:17.449Z,30.70
2019-06-01T12:22:47.207Z,30.50
2019-06-01T12:25:16.769Z,29.70
2019-06-01T12:27:46.218Z,29.60
2019-06-01T12:30:16.024Z,29.40
2019-06-01T12:32:46.111Z,29.60
2019-06-01T12:35:15.884Z,30.00
2019-06-01T12:38:04.845Z,29.80
2019-06-01T12:40:17.449Z,29.40
2019-06-01T12:42:47.765Z,29.70
2019-06-01T12:45:23.149Z,29.70
2019-06-01T12:47:55.554Z,29.80
2019-06-01T12:50:23.040Z,29.60
2019-06-01T12:52:54.211Z,28.60
2019-06-01T12:55:23.633Z,29.30
2019-06-01T12:57:53.189Z,29.50
2019-06-01T13:00:22.791Z,29.20
2019-06-01T13:03:03.703Z,29.70
2019-06-01T13:05:23.437Z,30.00
2019-06-01T13:08:01.665Z,29.90
2019-06-01T13:10:24.259Z,30.40
2019-06-01T13:12:53.717Z,30.50
2019-06-01T13:15:23.309Z,30.80
2019-06-01T13:17:52.753Z,30.40
2019-06-01T13:20:22.314Z,30.10
2019-06-01T13:22:52.001Z,29.60
2019-06-01T13:25:21.433Z,29.90
2019-06-01T13:27:52.491Z,30.00
2019-06-01T13:30:22.065Z,29.80
2019-06-01T13:32:52.791Z,29.70
2019-06-01T13:35:22.293Z,29.10
2019-06-01T13:38:06.893Z,29.30
2019-06-01T13:40:22.863Z,29.80
2019-06-01T13:42:53.179Z,30.30
2019-06-01T13:45:22.784Z,30.00
2019-06-01T13:47:52.151Z,29.20
2019-06-01T13:50:21.843Z,29.40
2019-06-01T13:52:52.154Z,29.90
2019-06-01T13:55:21.763Z,29.70
2019-06-01T13:57:52.875Z,29.50
2019-06-01T14:00:30.242Z,28.40
2019-06-01T14:02:57.448Z,28.50
2019-06-01T14:05:25.576Z,29.10
2019-06-01T14:07:55.758Z,29.50
2019-06-01T14:10:25.220Z,29.20
2019-06-01T14:12:55.594Z,29.40
2019-06-01T14:15:25.155Z,28.80
2019-06-01T14:17:54.734Z,29.40
2019-06-01T14:20:24.070Z,29.10
2019-06-01T14:22:58.908Z,29.20
2019-06-01T14:25:35.666Z,29.30
2019-06-01T14:28:05.556Z,28.70
2019-06-01T14:30:34.982Z,28.80
2019-06-01T14:33:04.676Z,29.50
2019-06-01T14:35:39.743Z,29.70
2019-06-01T14:38:09.187Z,29.90
2019-06-01T14:40:41.515Z,30.10
2019-06-01T14:43:12.365Z,29.70
2019-06-01T14:45:44.842Z,29.60
2019-06-01T14:48:16.776Z,29.50
2019-06-01T14:50:47.523Z,29.30
2019-06-01T14:53:16.893Z,29.50
2019-06-01T14:55:47.554Z,29.70
2019-06-01T14:58:17.156Z,29.70
2019-06-01T15:00:48.249Z,29.70
2019-06-01T15:03:17.890Z,29.60
2019-06-01T15:05:48.136Z,29.80
2019-06-01T15:08:17.759Z,29.90
2019-06-01T15:10:48.627Z,29.70
2019-06-01T15:13:18.152Z,29.10
2019-06-01T15:15:47.501Z,28.80
2019-06-01T15:18:16.951Z,28.80
2019-06-01T15:20:46.374Z,28.70
2019-06-01T15:23:15.860Z,28.20
2019-06-01T15:25:45.331Z,28.10
2019-06-01T15:28:14.870Z,28.20
2019-06-01T15:30:44.859Z,28.10
2019-06-01T15:33:14.217Z,28.10
2019-06-01T15:35:43.762Z,28.30
2019-06-01T15:38:13.126Z,27.90
2019-06-01T15:40:42.644Z,28.00
2019-06-01T15:43:11.994Z,28.10
2019-06-01T15:45:41.504Z,27.80
2019-06-01T15:48:10.985Z,27.70
2019-06-01T15:50:45.042Z,28.10
2019-06-01T15:53:14.547Z,29.00
2019-06-01T15:55:43.935Z,29.20
2019-06-01T15:58:13.355Z,30.00
2019-06-01T16:00:43.067Z,31.50
2019-06-01T16:03:12.666Z,32.30
2019-06-01T16:05:48.155Z,33.70
2019-06-01T16:08:17.591Z,31.00
2019-06-01T16:10:47.271Z,30.40
2019-06-01T16:13:16.844Z,29.30
2019-06-01T16:15:46.312Z,28.70
2019-06-01T16:18:18.414Z,29.00
2019-06-01T16:20:53.895Z,28.50
2019-06-01T16:23:22.652Z,28.30
2019-06-01T16:26:03.692Z,30.00
2019-06-01T16:28:23.318Z,30.80
2019-06-01T16:31:08.823Z,31.00
2019-06-01T16:33:37.439Z,31.10
2019-06-01T16:36:07.120Z,31.80
2019-06-01T16:38:36.572Z,33.20
2019-06-01T16:41:06.115Z,34.70
2019-06-01T16:43:37.460Z,34.50
2019-06-01T16:46:07.042Z,35.70
2019-06-01T16:48:36.585Z,35.80
2019-06-01T16:51:09.125Z,37.90
2019-06-01T16:53:40.645Z,35.80
2019-06-01T16:56:24.735Z,35.40
2019-06-01T16:58:54.155Z,36.20
2019-06-01T17:01:29.247Z,37.00
2019-06-01T17:03:58.706Z,35.40
2019-06-01T17:06:31.628Z,34.60
2019-06-01T17:09:01.007Z,34.80
2019-06-01T17:11:30.603Z,34.90
2019-06-01T17:14:00.775Z,33.60
2019-06-01T17:16:30.915Z,34.50
2019-06-01T17:19:01.049Z,34.60
2019-06-01T17:21:31.733Z,34.00
2019-06-01T17:24:01.587Z,34.70
2019-06-01T17:26:31.387Z,33.70
2019-06-01T17:29:02.007Z,35.00
2019-06-01T17:31:31.887Z,36.50
2019-06-01T17:34:02.521Z,35.20
2019-06-01T17:36:32.340Z,36.10
2019-06-01T17:39:02.095Z,36.90
2019-06-01T17:41:31.973Z,36.60
2019-06-01T17:44:02.589Z,36.90
2019-06-01T17:46:32.423Z,36.30
2019-06-01T17:49:23.423Z,34.70
2019-06-01T17:51:55.105Z,34.00
2019-06-01T17:54:24.556Z,34.30
2019-06-01T17:56:54.044Z,34.70
2019-06-01T17:59:26.618Z,33.30
2019-06-01T18:01:56.169Z,32.30
2019-06-01T18:04:25.569Z,31.40
2019-06-01T18:06:55.321Z,30.20
2019-06-01T18:09:24.845Z,29.80
2019-06-01T18:11:54.520Z,28.60
2019-06-01T18:14:26.622Z,28.20
2019-06-01T18:16:56.191Z,27.00
2019-06-01T18:19:25.732Z,25.40
2019-06-01T18:21:55.511Z,24.60
2019-06-01T18:24:25.131Z,23.90
2019-06-01T18:26:54.815Z,23.30
2019-06-01T18:29:24.550Z,22.60
2019-06-01T18:31:54.397Z,22.30
2019-06-01T18:34:27.691Z,22.10
2019-06-01T18:36:57.694Z,21.90
2019-06-01T18:39:28.678Z,21.80
2019-06-01T18:41:58.493Z,21.80
2019-06-01T18:44:28.344Z,21.60
2019-06-01T18:46:59.316Z,21.20
2019-06-01T18:49:28.942Z,21.00
2019-06-01T18:51:58.854Z,20.60
2019-06-01T18:54:28.639Z,20.40
2019-06-01T18:57:09.668Z,20.20
2019-06-01T18:59:29.687Z,19.90
2019-06-01T19:01:59.327Z,19.80
2019-06-01T19:04:28.885Z,19.60
2019-06-01T19:06:58.501Z,19.40
2019-06-01T19:09:27.922Z,19.20
2019-06-01T19:11:57.518Z,19.00
2019-06-01T19:14:26.898Z,18.80
2019-06-01T19:16:56.432Z,18.70
2019-06-01T19:19:25.791Z,18.50
2019-06-01T19:21:55.310Z,18.40
2019-06-01T19:24:24.994Z,18.20
2019-06-01T19:26:54.469Z,18.10
2019-06-01T19:29:24.025Z,18.00
2019-06-01T19:31:53.609Z,18.00
2019-06-01T19:34:23.653Z,17.90
2019-06-01T19:36:54.334Z,17.90
2019-06-01T19:39:24.554Z,17.90
2019-06-01T19:41:54.180Z,17.90
2019-06-01T19:44:23.705Z,17.90
2019-06-01T19:46:53.282Z,17.70
2019-06-01T19:49:22.723Z,17.80
2019-06-01T19:51:52.212Z,17.50
2019-06-01T19:54:21.655Z,17.40
2019-06-01T19:56:51.055Z,17.20
2019-06-01T19:59:20.464Z,17.10
2019-06-01T20:01:49.839Z,17.00
2019-06-01T20:04:19.221Z,16.90
2019-06-01T20:06:48.692Z,16.80
2019-06-01T20:09:19.268Z,16.60
2019-06-01T20:12:01.284Z,16.50
2019-06-01T20:14:22.582Z,16.40
2019-06-01T20:16:52.111Z,16.30
2019-06-01T20:19:21.887Z,16.10
2019-06-01T20:21:51.400Z,16.10
2019-06-01T20:24:21.465Z,16.00
2019-06-01T20:26:51.102Z,15.90
2019-06-01T20:29:21.787Z,16.00
2019-06-01T20:31:51.442Z,16.10
2019-06-01T20:34:22.097Z,16.00
2019-06-01T20:36:51.624Z,15.90
2019-06-01T20:39:22.302Z,15.70
2019-06-01T20:41:51.995Z,15.50
2019-06-01T20:44:21.411Z,15.40
2019-06-01T20:46:50.965Z,15.40
2019-06-01T20:49:20.735Z,15.30
2019-06-01T20:51:50.244Z,15.20
2019-06-01T20:54:21.061Z,15.10
2019-06-01T20:56:50.735Z,15.10
2019-06-01T20:59:21.490Z,15.00
2019-06-01T21:01:51.459Z,14.90
2019-06-01T21:04:22.214Z,14.80
2019-06-01T21:06:51.683Z,14.80
2019-06-01T21:09:22.026Z,14.70
2019-06-01T21:11:51.660Z,14.60
2019-06-01T21:14:21.033Z,14.60
2019-06-01T21:16:50.470Z,14.60
2019-06-01T21:19:20.406Z,14.50
2019-06-01T21:21:50.036Z,14.50
2019-06-01T21:24:21.129Z,14.50
2019-06-01T21:26:50.703Z,14.40
2019-06-01T21:29:20.930Z,14.30
2019-06-01T21:31:50.541Z,14.30
2019-06-01T21:34:20.950Z,14.20
2019-06-01T21:36:51.095Z,14.20
2019-06-01T21:39:21.670Z,14.10
2019-06-01T21:41:51.137Z,14.00
2019-06-01T21:44:21.589Z,14.00
2019-06-01T21:46:51.269Z,13.90
2019-06-01T21:49:22.001Z,13.90
2019-06-01T21:51:53.115Z,13.90
2019-06-01T21:54:22.803Z,13.90
2019-06-01T21:56:52.323Z,13.90
2019-06-01T21:59:22.703Z,13.90
2019-06-01T22:01:52.232Z,13.80
2019-06-01T22:04:22.928Z,13.80
2019-06-01T22:06:52.462Z,13.70
2019-06-01T22:09:23.255Z,13.70
2019-06-01T22:11:52.971Z,13.60
2019-06-01T22:14:23.453Z,13.60
2019-06-01T22:16:53.278Z,13.60
2019-06-01T22:19:23.895Z,13.50
2019-06-01T22:21:53.366Z,13.40
2019-06-01T22:24:23.857Z,13.40
2019-06-01T22:26:53.483Z,13.30
2019-06-01T22:29:22.863Z,13.30
2019-06-01T22:31:52.240Z,13.20
2019-06-01T22:34:22.639Z,13.10
2019-06-01T22:36:52.069Z,13.10
2019-06-01T22:39:22.681Z,13.10
2019-06-01T22:41:52.095Z,13.00
2019-06-01T22:44:22.090Z,13.00
2019-06-01T22:46:51.622Z,12.90
2019-06-01T22:49:20.999Z,12.90
2019-06-01T22:51:50.355Z,12.90
2019-06-01T22:54:20.959Z,12.90
2019-06-01T22:56:50.822Z,12.90
2019-06-01T22:59:20.509Z,12.80
2019-06-01T23:01:49.986Z,12.80
2019-06-01T23:04:20.852Z,12.80
2019-06-01T23:06:50.346Z,12.80
2019-06-01T23:09:20.971Z,12.70
2019-06-01T23:11:50.427Z,12.70
2019-06-01T23:14:21.223Z,12.60
2019-06-01T23:16:50.820Z,12.50
2019-06-01T23:19:21.563Z,12.50
2019-06-01T23:21:50.991Z,12.50
2019-06-01T23:24:21.811Z,12.40
2019-06-01T23:26:51.271Z,12.40
2019-06-01T23:29:22.190Z,12.40
2019-06-01T23:31:51.736Z,12.30
2019-06-01T23:34:22.332Z,12.30
2019-06-01T23:36:51.879Z,12.30
2019-06-01T23:39:22.654Z,12.30
2019-06-01T23:41:52.076Z,12.20
2019-06-01T23:44:22.603Z,12.10
2019-06-01T23:46:52.270Z,12.10
2019-06-01T23:49:23.004Z,12.10
2019-06-01T23:51:52.552Z,12.10
2019-06-01T23:54:21.894Z,12.10
2019-06-01T23:56:51.382Z,12.00
2019-06-01T23:59:20.732Z,12.00
